createdAt,value
2023-04-20T00:01:33.719Z,100.00
2023-04-20T00:04:00.507Z,100.00
2023-04-20T00:06:29.880Z,100.00
2023-04-20T00:08:56.897Z,100.00
2023-04-20T00:11:23.413Z,100.00
2023-04-20T00:13:50.060Z,100.00
2023-04-20T00:16:17.097Z,100.00
2023-04-20T00:18:46.391Z,100.00
2023-04-20T00:21:15.886Z,100.00
2023-04-20T00:26:09.332Z,100.00
2023-04-20T00:28:36.109Z,100.00
2023-04-20T00:31:03.351Z,100.00
2023-04-20T00:33:29.911Z,100.00
2023-04-20T00:35:56.674Z,100.00
2023-04-20T00:38:23.276Z,100.00
2023-04-20T00:45:57.272Z,100.00
2023-04-20T00:53:19.362Z,100.00
2023-04-20T00:55:46.779Z,100.00
2023-04-20T01:00:40.649Z,100.00
2023-04-20T01:05:35.558Z,100.00
2023-04-20T01:12:55.564Z,100.00
2023-04-20T01:15:22.234Z,100.00
2023-04-20T01:17:52.404Z,100.00
2023-04-20T01:22:49.130Z,100.00
2023-04-20T01:25:17.621Z,100.00
2023-04-20T01:27:44.888Z,100.00
2023-04-20T01:37:33.682Z,100.00
2023-04-20T01:40:00.692Z,100.00
2023-04-20T01:42:27.482Z,100.00
2023-04-20T01:44:54.266Z,100.00
2023-04-20T01:47:20.957Z,100.00
2023-04-20T01:52:14.357Z,100.00
2023-04-20T01:57:07.906Z,100.00
2023-04-20T01:59:34.609Z,100.00
2023-04-20T02:02:01.330Z,100.00
2023-04-20T02:06:54.406Z,100.00
2023-04-20T02:11:47.701Z,100.00
2023-04-20T02:14:14.437Z,100.00
2023-04-20T02:16:42.600Z,100.00
2023-04-20T02:19:09.924Z,100.00
2023-04-20T02:24:03.384Z,100.00
2023-04-20T02:26:30.101Z,100.00
2023-04-20T02:28:58.460Z,100.00
2023-04-20T02:31:25.330Z,100.00
2023-04-20T02:36:18.821Z,100.00
2023-04-20T02:41:12.314Z,100.00
2023-04-20T02:43:38.946Z,100.00
2023-04-20T02:46:05.863Z,100.00
2023-04-20T02:50:59.285Z,100.00
2023-04-20T02:53:25.945Z,100.00
2023-04-20T02:58:19.219Z,100.00
2023-04-20T03:00:46.047Z,100.00
2023-04-20T03:03:12.892Z,100.00
2023-04-20T03:08:07.396Z,100.00
2023-04-20T03:15:27.348Z,100.00
2023-04-20T03:17:54.047Z,100.00
2023-04-20T03:20:20.915Z,100.00
2023-04-20T03:22:47.543Z,100.00
2023-04-20T03:25:14.309Z,100.00
2023-04-20T03:27:41.084Z,100.00
2023-04-20T03:32:35.126Z,100.00
2023-04-20T03:37:28.552Z,100.00
2023-04-20T03:39:55.417Z,100.00
2023-04-20T03:42:22.051Z,100.00
2023-04-20T03:47:15.884Z,100.00
2023-04-20T03:52:09.284Z,100.00
2023-04-20T03:54:35.901Z,100.00
2023-04-20T03:57:02.645Z,100.00
2023-04-20T03:59:29.217Z,100.00
2023-04-20T04:01:56.716Z,100.00
2023-04-20T04:04:23.810Z,100.00
2023-04-20T04:06:50.857Z,100.00
2023-04-20T04:09:20.239Z,100.00
2023-04-20T04:11:46.986Z,100.00
2023-04-20T04:14:13.676Z,100.00
2023-04-20T04:19:07.201Z,100.00
2023-04-20T04:21:34.789Z,100.00
2023-04-20T04:24:01.684Z,100.00
2023-04-20T04:26:28.798Z,100.00
2023-04-20T04:31:22.016Z,100.00
2023-04-20T04:33:49.886Z,100.00
2023-04-20T04:38:46.148Z,100.00
2023-04-20T04:41:13.006Z,100.00
2023-04-20T04:43:40.988Z,100.00
2023-04-20T04:46:14.255Z,100.00
2023-04-20T04:51:09.686Z,100.00
2023-04-20T04:53:37.107Z,100.00
2023-04-20T04:56:25.628Z,100.00
2023-04-20T05:01:18.716Z,100.00
2023-04-20T05:03:45.345Z,100.00
2023-04-20T05:06:11.831Z,100.00
2023-04-20T05:08:38.296Z,100.00
2023-04-20T05:11:04.852Z,100.00
2023-04-20T05:13:31.534Z,100.00
2023-04-20T05:15:58.146Z,100.00
2023-04-20T05:23:22.709Z,100.00
2023-04-20T05:35:36.123Z,100.00
2023-04-20T05:38:06.241Z,100.00
2023-04-20T05:45:29.242Z,100.00
2023-04-20T05:55:22.632Z,100.00
2023-04-20T06:15:10.722Z,100.00
2023-04-20T06:17:40.481Z,100.00
2023-04-20T06:20:09.296Z,100.00
2023-04-20T06:22:36.353Z,100.00
2023-04-20T06:25:06.464Z,100.00
2023-04-20T06:27:33.052Z,100.00
2023-04-20T06:29:59.683Z,100.00
2023-04-20T06:37:23.110Z,100.00
2023-04-20T06:42:27.730Z,100.00
2023-04-20T06:44:56.164Z,100.00
2023-04-20T06:52:15.664Z,100.00
2023-04-20T06:54:42.206Z,94.59
2023-04-20T07:02:11.872Z,100.00
2023-04-20T07:04:38.379Z,100.00
2023-04-20T07:07:04.962Z,100.00
2023-04-20T07:09:31.562Z,100.00
2023-04-20T07:11:58.071Z,100.00
2023-04-20T07:14:24.613Z,100.00
2023-04-20T07:16:54.849Z,100.00
2023-04-20T07:21:48.104Z,100.00
2023-04-20T07:29:07.614Z,100.00
2023-04-20T07:31:35.391Z,100.00
2023-04-20T07:34:02.304Z,100.00
2023-04-20T07:36:30.038Z,100.00
2023-04-20T07:38:56.970Z,100.00
2023-04-20T07:41:23.774Z,97.23
2023-04-20T07:43:50.449Z,97.40
2023-04-20T07:46:21.410Z,96.55
2023-04-20T07:48:49.047Z,87.58
2023-04-20T07:51:15.924Z,90.35
2023-04-20T07:53:44.078Z,88.06
2023-04-20T08:01:05.961Z,91.31
2023-04-20T08:03:36.397Z,92.20
2023-04-20T08:06:03.440Z,79.93
2023-04-20T08:10:58.689Z,74.04
2023-04-20T08:15:52.526Z,80.31
2023-04-20T08:18:21.184Z,77.83
2023-04-20T08:23:14.358Z,68.50
2023-04-20T08:28:19.285Z,58.00
2023-04-20T08:30:47.159Z,57.30
2023-04-20T08:35:41.019Z,63.50
2023-04-20T08:55:31.402Z,65.80
2023-04-20T08:57:57.988Z,63.18
2023-04-20T09:00:24.528Z,60.00
2023-04-20T09:02:59.197Z,58.86
2023-04-20T09:07:56.793Z,56.23
2023-04-20T09:10:24.422Z,71.06
2023-04-20T09:20:29.886Z,70.43
2023-04-20T09:23:10.998Z,72.41
2023-04-20T09:25:38.020Z,77.94
2023-04-20T09:28:05.192Z,79.46
2023-04-20T09:30:46.042Z,79.17
2023-04-20T09:33:14.406Z,80.76
2023-04-20T09:35:42.648Z,82.02
2023-04-20T09:38:11.022Z,85.05
2023-04-20T09:40:38.224Z,85.39
2023-04-20T09:43:10.662Z,89.70
2023-04-20T09:45:38.791Z,87.93
2023-04-20T09:48:07.770Z,87.86
2023-04-20T09:50:48.607Z,88.37
2023-04-20T09:55:49.361Z,89.28
2023-04-20T09:58:20.289Z,87.54
2023-04-20T10:00:46.798Z,88.11
2023-04-20T10:03:17.986Z,87.12
2023-04-20T10:05:44.591Z,88.04
2023-04-20T10:08:11.373Z,87.16
2023-04-20T10:10:48.955Z,87.26
2023-04-20T10:13:19.081Z,88.63
2023-04-20T10:15:45.587Z,91.85
2023-04-20T10:18:19.356Z,94.29
2023-04-20T10:20:46.608Z,100.00
2023-04-20T10:23:18.727Z,100.00
2023-04-20T10:25:59.675Z,100.00
2023-04-20T10:28:37.432Z,100.00
2023-04-20T10:33:30.199Z,100.00
2023-04-20T10:41:12.924Z,100.00
2023-04-20T10:43:42.305Z,100.00
2023-04-20T10:51:30.648Z,100.00
2023-04-20T10:54:08.285Z,100.00
2023-04-20T10:56:42.815Z,100.00
2023-04-20T11:01:38.481Z,100.00
2023-04-20T11:04:12.513Z,100.00
2023-04-20T11:06:43.812Z,100.00
2023-04-20T11:09:22.752Z,100.00
2023-04-20T11:12:00.479Z,100.00
2023-04-20T11:14:27.428Z,100.00
2023-04-20T11:16:55.858Z,100.00
2023-04-20T11:21:57.141Z,100.00
2023-04-20T11:24:28.967Z,100.00
2023-04-20T11:26:58.099Z,100.00
2023-04-20T11:29:31.221Z,100.00
2023-04-20T11:39:33.641Z,100.00
2023-04-20T11:42:01.886Z,100.00
2023-04-20T11:56:46.822Z,100.00
2023-04-20T12:14:06.968Z,100.00
2023-04-20T12:16:33.659Z,100.00
2023-04-20T12:19:00.380Z,100.00
2023-04-20T12:21:27.443Z,100.00
2023-04-20T12:28:48.204Z,100.00
2023-04-20T12:31:14.857Z,100.00
2023-04-20T12:33:41.406Z,100.00
2023-04-20T12:36:12.880Z,100.00
2023-04-20T12:38:39.527Z,100.00
2023-04-20T12:41:05.992Z,100.00
2023-04-20T12:43:32.709Z,100.00
2023-04-20T12:45:59.773Z,100.00
2023-04-20T12:48:26.506Z,100.00
2023-04-20T12:53:20.446Z,100.00
2023-04-20T13:00:42.053Z,100.00
2023-04-20T13:05:37.204Z,100.00
2023-04-20T13:08:03.957Z,100.00
2023-04-20T13:10:30.975Z,100.00
2023-04-20T13:12:57.858Z,100.00
2023-04-20T13:15:35.549Z,100.00
2023-04-20T13:18:05.903Z,100.00
2023-04-20T13:20:32.668Z,100.00
2023-04-20T13:23:01.065Z,100.00
2023-04-20T13:25:30.103Z,100.00
2023-04-20T13:27:56.857Z,100.00
2023-04-20T13:30:24.713Z,100.00
2023-04-20T13:32:51.736Z,100.00
2023-04-20T13:35:18.777Z,100.00
2023-04-20T13:40:12.761Z,100.00
2023-04-20T13:42:39.422Z,100.00
2023-04-20T13:45:10.280Z,100.00
2023-04-20T13:47:38.900Z,100.00
2023-04-20T13:50:07.619Z,100.00
2023-04-20T13:52:34.652Z,100.00
2023-04-20T13:55:01.185Z,100.00
2023-04-20T13:57:37.638Z,100.00
2023-04-20T14:00:05.298Z,100.00
2023-04-20T14:02:32.975Z,100.00
2023-04-20T14:05:00.190Z,100.00
2023-04-20T14:07:26.948Z,100.00
2023-04-20T14:12:23.234Z,100.00
2023-04-20T14:14:50.251Z,100.00
2023-04-20T14:24:36.326Z,100.00
2023-04-20T14:27:03.412Z,100.00
2023-04-20T14:29:30.037Z,100.00
2023-04-20T14:31:56.707Z,100.00
2023-04-20T14:36:49.653Z,100.00
2023-04-20T14:39:16.378Z,100.00
2023-04-20T14:54:04.570Z,100.00
2023-04-20T14:56:31.277Z,100.00
2023-04-20T14:58:59.763Z,100.00
2023-04-20T15:01:27.645Z,100.00
2023-04-20T15:03:54.584Z,100.00
2023-04-20T15:13:42.476Z,100.00
2023-04-20T15:21:02.855Z,100.00
2023-04-20T15:23:30.788Z,100.00
2023-04-20T15:25:57.987Z,100.00
2023-04-20T15:28:24.834Z,100.00
2023-04-20T15:30:52.761Z,100.00
2023-04-20T15:35:46.410Z,100.00
2023-04-20T15:38:12.914Z,100.00
2023-04-20T15:40:39.708Z,100.00
2023-04-20T15:43:06.652Z,100.00
2023-04-20T15:48:01.040Z,100.00
2023-04-20T15:50:27.751Z,100.00
2023-04-20T15:55:26.496Z,100.00
2023-04-20T15:57:58.278Z,100.00
2023-04-20T16:00:25.046Z,100.00
2023-04-20T16:02:53.785Z,100.00
2023-04-20T16:05:21.441Z,100.00
2023-04-20T16:07:47.999Z,100.00
2023-04-20T16:10:14.593Z,100.00
2023-04-20T16:12:41.088Z,100.00
2023-04-20T16:15:11.351Z,100.00
2023-04-20T16:17:38.166Z,100.00
2023-04-20T16:22:35.072Z,100.00
2023-04-20T16:25:01.969Z,100.00
2023-04-20T16:27:28.626Z,100.00
2023-04-20T16:29:55.814Z,100.00
2023-04-20T16:32:26.395Z,100.00
2023-04-20T16:34:54.375Z,100.00
2023-04-20T16:42:19.540Z,100.00
2023-04-20T16:44:46.021Z,100.00
2023-04-20T16:49:39.451Z,100.00
2023-04-20T16:52:06.010Z,100.00
2023-04-20T16:54:32.482Z,100.00
2023-04-20T16:59:25.480Z,100.00
2023-04-20T17:09:15.851Z,100.00
2023-04-20T17:11:42.496Z,100.00
2023-04-20T17:14:09.328Z,100.00
2023-04-20T17:16:35.928Z,100.00
2023-04-20T17:21:30.230Z,100.00
2023-04-20T17:23:57.032Z,100.00
2023-04-20T17:26:23.822Z,100.00
2023-04-20T17:28:50.660Z,100.00
2023-04-20T17:33:48.688Z,100.00
2023-04-20T17:38:43.363Z,100.00
2023-04-20T17:41:10.185Z,100.00
2023-04-20T17:43:40.341Z,100.00
2023-04-20T17:46:07.752Z,100.00
2023-04-20T17:48:34.525Z,100.00
2023-04-20T17:51:01.186Z,100.00
2023-04-20T17:53:28.676Z,100.00
2023-04-20T17:55:55.254Z,100.00
2023-04-20T17:58:21.832Z,100.00
2023-04-20T18:00:48.557Z,100.00
2023-04-20T18:05:42.535Z,100.00
2023-04-20T18:08:10.290Z,100.00
2023-04-20T18:10:37.774Z,100.00
2023-04-20T18:13:04.879Z,100.00
2023-04-20T18:15:31.658Z,100.00
2023-04-20T18:27:46.459Z,100.00
2023-04-20T18:32:41.337Z,100.00
2023-04-20T18:37:35.735Z,100.00
2023-04-20T18:40:02.277Z,100.00
2023-04-20T18:42:29.055Z,100.00
2023-04-20T18:44:56.096Z,100.00
2023-04-20T18:52:19.380Z,100.00
2023-04-20T18:54:46.798Z,100.00
2023-04-20T18:57:13.485Z,100.00
2023-04-20T18:59:42.861Z,100.00
2023-04-20T19:07:03.189Z,100.00
2023-04-20T19:11:57.197Z,100.00
2023-04-20T19:14:23.811Z,100.00
2023-04-20T19:19:16.959Z,100.00
2023-04-20T19:21:43.405Z,100.00
2023-04-20T19:24:12.370Z,100.00
2023-04-20T19:26:38.980Z,100.00
2023-04-20T19:31:36.956Z,100.00
2023-04-20T19:34:04.729Z,100.00
2023-04-20T19:36:32.208Z,100.00
2023-04-20T19:38:58.888Z,100.00
2023-04-20T19:41:26.171Z,100.00
2023-04-20T19:43:53.248Z,100.00
2023-04-20T19:51:13.312Z,100.00
2023-04-20T19:53:39.894Z,100.00
2023-04-20T19:56:06.824Z,100.00
2023-04-20T19:58:33.489Z,100.00
2023-04-20T20:01:00.242Z,100.00
2023-04-20T20:05:54.423Z,100.00
2023-04-20T20:10:52.863Z,100.00
2023-04-20T20:13:19.589Z,100.00
2023-04-20T20:15:46.205Z,100.00
2023-04-20T20:20:40.854Z,100.00
2023-04-20T20:25:53.553Z,100.00
2023-04-20T20:30:46.960Z,100.00
2023-04-20T20:35:45.525Z,100.00
2023-04-20T20:38:12.275Z,100.00
2023-04-20T20:40:40.235Z,100.00
2023-04-20T20:43:06.990Z,100.00
2023-04-20T20:45:33.938Z,100.00
2023-04-20T20:50:52.527Z,100.00
2023-04-20T20:53:20.590Z,100.00
2023-04-20T20:58:13.765Z,100.00
2023-04-20T21:00:40.687Z,100.00
2023-04-20T21:10:30.964Z,100.00
2023-04-20T21:15:27.029Z,100.00
2023-04-20T21:25:14.810Z,100.00
2023-04-20T21:30:08.574Z,100.00
2023-04-20T21:32:35.568Z,100.00
2023-04-20T21:35:02.286Z,100.00
2023-04-20T21:37:28.933Z,100.00
2023-04-20T21:39:57.146Z,100.00
2023-04-20T21:42:23.759Z,100.00
2023-04-20T21:44:50.478Z,100.00
2023-04-20T21:49:43.876Z,100.00
2023-04-20T21:52:11.019Z,100.00
2023-04-20T21:54:38.016Z,100.00
2023-04-20T21:57:04.693Z,100.00
2023-04-20T21:59:31.289Z,100.00
2023-04-20T22:06:55.623Z,100.00
2023-04-20T22:09:22.932Z,100.00
2023-04-20T22:11:50.231Z,100.00
2023-04-20T22:14:17.278Z,100.00
2023-04-20T22:19:10.444Z,100.00
2023-04-20T22:21:37.166Z,100.00
2023-04-20T22:26:30.687Z,100.00
2023-04-20T22:31:23.720Z,100.00
2023-04-20T22:33:50.201Z,100.00
2023-04-20T22:38:43.907Z,100.00
2023-04-20T22:41:10.707Z,100.00
2023-04-20T22:43:37.272Z,100.00
2023-04-20T22:46:06.536Z,100.00
2023-04-20T22:48:33.173Z,100.00
2023-04-20T22:51:00.727Z,100.00
2023-04-20T22:53:29.873Z,100.00
2023-04-20T22:56:06.751Z,100.00
2023-04-20T23:01:00.297Z,100.00
2023-04-20T23:03:27.312Z,100.00
2023-04-20T23:11:00.004Z,100.00
2023-04-20T23:13:29.875Z,100.00
2023-04-20T23:15:56.523Z,100.00
2023-04-20T23:20:49.608Z,100.00
2023-04-20T23:23:16.303Z,100.00
2023-04-20T23:25:42.827Z,100.00
2023-04-20T23:28:09.479Z,100.00
2023-04-20T23:30:36.508Z,100.00
2023-04-20T23:33:03.227Z,100.00
2023-04-20T23:37:58.184Z,100.00
2023-04-20T23:45:18.543Z,100.00
2023-04-20T23:47:45.434Z,100.00
2023-04-20T23:52:38.611Z,100.00
2023-04-20T23:57:32.272Z,100.00
2023-04-20T23:59:58.904Z,100.00
